Chelan, Washington
Current Conditions -  °F | °C
As of 12:55 AM on Wednesday 22 Oct 2014 (Local Time) from KEAT Reporting Station
Overcast Overcast  
Wind Chill: 52°   Ceiling: 6500
Heat Index: 52°   Visibility: 10mi
Dew Point: 41°   Wind: 15mph
Humidity: 66%   Direction: 140°SE
Pressure: 29.86"   Gusts: NA
Location:  47.84°N, 120.01°W
Report Text: KEAT 220755Z AUTO 14013KT 10SM OVC065 11/05 A2986 RMK AO2 SLP111 T01110050 401890078
Loading
Personal Weather Stations






























Interactive Weather Map New forecast layout! Learn more

10-Day Weather Forecast

Advertisements
Track Severe Weather on mobile